Portada
METAR-TAF:

METAR-TAF

Aeropuertos :

Bizerta, Túnez

latitud: 37-15N, longitud: 009-48E, altitud: 5 m

Observación

El informe se hizo hace 18 minutos, a las 21:00 UTC
Viento 7 kt del este-sureste
Temperatura 13°C
Humedad 88%
Presión 1027 hPa
Visibilidad: 8000 m
Escasas nubes a una altura de 2000 ft

METAR: DTTB 032100Z 12007KT 8000 FEW020 13/11 Q1027

Hora: 22:18 (21:18 UTC)

Pronóstico

El informe se hizo hace 3 horas y 18 minutos, a las 18:00 UTC
Pronóstico válido del 03 a las 19 UTC al 04 a las 04 UTC
Viento 12 kt del este
Visibilidad 10 km o más
Escasas nubes a una altura de 2000 ft

TAF: DTTB 031800Z 0319/0404 09012KT 9999 FEW020

Observaciones y pronósticos meteorológicos de más de 4000 aeropuertos (mensajes METAR y TAF).

Los puntos amarillos y rojos representan las estaciones disponibles.

Ponga el ratón en el punto deseado para ver el nombre de la estación.

Haga clic para ver las observaciones y los pronósticos meteorológicos.

Para cambiar el mapa : haga clic en los botones verdes con una cruz de color negro para hacer un zoom, en el botón verde con un guión para alejar o en las flechas verdes para mapas adyacentes.


METAR-TAF: